Terminal Aerodrome Forecast
Issued by NWS La Crosse, WI

Home | Current Version | Previous Version | Text Only | Print | Product List | Glossary On
Versions: 1 2 3 4 5 6 7 8 9 10 11 12 13 14 15 16 17 18 19 20 21 22 23 24 25 26 27 28 29 30 31 32 33 34 35 36
000
FTUS43 KARX 011720
TAFLSE
TAF
KLSE 011720Z 0118/0218 18017G27KT P6SM SCT150
     FM020000 18016G24KT P6SM SCT120
     FM020700 22013KT 6SM -SHRA VCTS OVC040CB
      TEMPO 0208/0210 2SM TSRA BKN020CB
     FM021100 30010KT P6SM SCT070=

USA.gov is the U.S. government's official web portal to all federal, state and local government web resources and services.